sensor_id;sensor_type;location;lat;lon;timestamp;pressure;altitude;pressure_sealevel;temperature;humidity
28628;BME280;15815;46.760;19.604;2023-04-05T00:00:17;100526.97;;;2.01;51.89
28628;BME280;15815;46.760;19.604;2023-04-05T00:02:43;100534.16;;;2.14;51.75
28628;BME280;15815;46.760;19.604;2023-04-05T00:05:09;100506.69;;;1.88;51.76
28628;BME280;15815;46.760;19.604;2023-04-05T00:07:34;100494.22;;;1.82;52.03
28628;BME280;15815;46.760;19.604;2023-04-05T00:10:00;100496.66;;;1.83;52.12
28628;BME280;15815;46.760;19.604;2023-04-05T00:12:27;100514.66;;;1.90;51.99
28628;BME280;15815;46.760;19.604;2023-04-05T00:14:52;100498.94;;;1.81;52.31
28628;BME280;15815;46.760;19.604;2023-04-05T00:17:18;100502.06;;;1.80;52.85
28628;BME280;15815;46.760;19.604;2023-04-05T00:19:43;100524.28;;;1.92;52.26
28628;BME280;15815;46.760;19.604;2023-04-05T00:22:09;100530.84;;;1.88;52.30
28628;BME280;15815;46.760;19.604;2023-04-05T00:24:36;100522.88;;;1.86;53.05
28628;BME280;15815;46.760;19.604;2023-04-05T00:27:09;100504.59;;;1.73;52.91
28628;BME280;15815;46.760;19.604;2023-04-05T00:29:34;100493.19;;;1.53;53.28
28628;BME280;15815;46.760;19.604;2023-04-05T00:32:05;100496.19;;;1.61;53.06
28628;BME280;15815;46.760;19.604;2023-04-05T00:34:35;100474.00;;;1.48;53.24
28628;BME280;15815;46.760;19.604;2023-04-05T00:37:06;100494.59;;;1.60;53.64
28628;BME280;15815;46.760;19.604;2023-04-05T00:39:32;100494.94;;;1.58;53.46
28628;BME280;15815;46.760;19.604;2023-04-05T00:41:58;100467.75;;;1.39;53.43
28628;BME280;15815;46.760;19.604;2023-04-05T00:44:26;100489.69;;;1.44;52.66
28628;BME280;15815;46.760;19.604;2023-04-05T00:46:51;100521.94;;;1.61;53.28
28628;BME280;15815;46.760;19.604;2023-04-05T00:49:20;100504.00;;;1.46;53.71
28628;BME280;15815;46.760;19.604;2023-04-05T00:51:46;100513.94;;;1.47;53.17
28628;BME280;15815;46.760;19.604;2023-04-05T00:54:13;100465.78;;;1.19;53.50
28628;BME280;15815;46.760;19.604;2023-04-05T00:56:40;100473.28;;;1.18;53.05
28628;BME280;15815;46.760;19.604;2023-04-05T00:59:05;100494.97;;;1.37;53.05
28628;BME280;15815;46.760;19.604;2023-04-05T01:01:31;100494.00;;;1.33;53.30
28628;BME280;15815;46.760;19.604;2023-04-05T01:04:00;100465.53;;;1.12;53.23
28628;BME280;15815;46.760;19.604;2023-04-05T01:12:20;100495.69;;;1.26;52.72
28628;BME280;15815;46.760;19.604;2023-04-05T01:14:49;100485.63;;;1.21;52.62
28628;BME280;15815;46.760;19.604;2023-04-05T01:17:17;100513.84;;;1.35;53.04
28628;BME280;15815;46.760;19.604;2023-04-05T01:19:56;100490.97;;;1.26;53.00
28628;BME280;15815;46.760;19.604;2023-04-05T01:22:36;100516.78;;;1.39;53.14
28628;BME280;15815;46.760;19.604;2023-04-05T01:25:23;100523.13;;;1.39;53.27
28628;BME280;15815;46.760;19.604;2023-04-05T01:30:23;100523.19;;;1.31;54.12
28628;BME280;15815;46.760;19.604;2023-04-05T01:38:27;100516.00;;;1.09;55.30
28628;BME280;15815;46.760;19.604;2023-04-05T01:40:53;100494.06;;;1.04;55.38
28628;BME280;15815;46.760;19.604;2023-04-05T01:43:19;100495.88;;;1.00;55.49
28628;BME280;15815;46.760;19.604;2023-04-05T01:45:45;100516.34;;;1.07;55.78
28628;BME280;15815;46.760;19.604;2023-04-05T01:48:12;100498.03;;;0.94;55.98
28628;BME280;15815;46.760;19.604;2023-04-05T01:50:38;100506.88;;;0.87;57.15
28628;BME280;15815;46.760;19.604;2023-04-05T01:53:03;100486.56;;;0.83;56.95
28628;BME280;15815;46.760;19.604;2023-04-05T01:55:29;100481.84;;;0.84;57.18
28628;BME280;15815;46.760;19.604;2023-04-05T01:57:56;100483.00;;;0.74;57.49
28628;BME280;15815;46.760;19.604;2023-04-05T02:00:21;100488.66;;;0.57;57.84
28628;BME280;15815;46.760;19.604;2023-04-05T02:02:49;100484.41;;;0.59;57.95
28628;BME280;15815;46.760;19.604;2023-04-05T02:05:14;100480.25;;;0.45;58.23
28628;BME280;15815;46.760;19.604;2023-04-05T02:07:40;100482.53;;;0.43;58.56
28628;BME280;15815;46.760;19.604;2023-04-05T02:10:08;100476.31;;;0.46;58.33
28628;BME280;15815;46.760;19.604;2023-04-05T02:12:34;100506.53;;;0.59;58.99
28628;BME280;15815;46.760;19.604;2023-04-05T02:14:59;100479.91;;;0.46;59.41
28628;BME280;15815;46.760;19.604;2023-04-05T02:17:25;100514.84;;;0.59;59.82
28628;BME280;15815;46.760;19.604;2023-04-05T02:19:51;100508.03;;;0.57;59.97
28628;BME280;15815;46.760;19.604;2023-04-05T02:22:19;100491.97;;;0.42;59.75
28628;BME280;15815;46.760;19.604;2023-04-05T02:24:57;100479.16;;;0.37;60.10
28628;BME280;15815;46.760;19.604;2023-04-05T02:27:23;100487.28;;;0.34;60.49
28628;BME280;15815;46.760;19.604;2023-04-05T02:29:49;100513.06;;;0.55;60.58
28628;BME280;15815;46.760;19.604;2023-04-05T02:32:14;100469.09;;;0.24;60.95
28628;BME280;15815;46.760;19.604;2023-04-05T02:34:40;100475.25;;;0.38;60.93
28628;BME280;15815;46.760;19.604;2023-04-05T02:37:06;100490.72;;;0.30;61.12
28628;BME280;15815;46.760;19.604;2023-04-05T02:39:32;100519.09;;;0.48;61.48
28628;BME280;15815;46.760;19.604;2023-04-05T02:41:58;100520.28;;;0.39;61.74
28628;BME280;15815;46.760;19.604;2023-04-05T02:44:24;100494.63;;;0.29;61.42
28628;BME280;15815;46.760;19.604;2023-04-05T02:46:49;100470.75;;;0.16;61.24
28628;BME280;15815;46.760;19.604;2023-04-05T02:49:21;100490.59;;;0.18;61.25
28628;BME280;15815;46.760;19.604;2023-04-05T02:51:47;100474.53;;;0.12;61.31
28628;BME280;15815;46.760;19.604;2023-04-05T02:54:13;100492.53;;;0.18;61.11
28628;BME280;15815;46.760;19.604;2023-04-05T02:56:39;100497.06;;;0.22;61.37
28628;BME280;15815;46.760;19.604;2023-04-05T02:59:10;100514.56;;;0.44;61.55
28628;BME280;15815;46.760;19.604;2023-04-05T03:01:35;100499.66;;;0.36;61.76
28628;BME280;15815;46.760;19.604;2023-04-05T03:06:33;100496.94;;;0.27;62.08
28628;BME280;15815;46.760;19.604;2023-04-05T03:08:59;100485.03;;;0.27;62.25
28628;BME280;15815;46.760;19.604;2023-04-05T03:11:24;100487.16;;;0.21;61.78
28628;BME280;15815;46.760;19.604;2023-04-05T03:13:50;100491.88;;;0.21;62.23
28628;BME280;15815;46.760;19.604;2023-04-05T03:16:15;100497.06;;;0.22;61.83
28628;BME280;15815;46.760;19.604;2023-04-05T03:18:44;100469.53;;;0.05;61.93
28628;BME280;15815;46.760;19.604;2023-04-05T03:21:10;100499.56;;;0.15;62.04
28628;BME280;15815;46.760;19.604;2023-04-05T03:23:35;100490.16;;;0.08;62.51
28628;BME280;15815;46.760;19.604;2023-04-05T03:26:04;100526.69;;;0.22;62.94
28628;BME280;15815;46.760;19.604;2023-04-05T03:28:31;100507.69;;;0.12;62.48
28628;BME280;15815;46.760;19.604;2023-04-05T03:30:57;100501.50;;;0.15;62.76
28628;BME280;15815;46.760;19.604;2023-04-05T03:33:23;100508.34;;;0.09;62.92
28628;BME280;15815;46.760;19.604;2023-04-05T03:35:50;100486.63;;;-0.10;63.25
28628;BME280;15815;46.760;19.604;2023-04-05T03:38:15;100493.75;;;-0.09;63.66
28628;BME280;15815;46.760;19.604;2023-04-05T03:40:42;100511.59;;;0.11;63.04
28628;BME280;15815;46.760;19.604;2023-04-05T03:43:08;100532.28;;;0.05;63.22
28628;BME280;15815;46.760;19.604;2023-04-05T03:45:36;100548.13;;;0.25;62.96
28628;BME280;15815;46.760;19.604;2023-04-05T03:48:02;100529.97;;;0.15;63.13
28628;BME280;15815;46.760;19.604;2023-04-05T03:50:27;100537.78;;;0.13;63.90
28628;BME280;15815;46.760;19.604;2023-04-05T03:52:53;100524.31;;;0.03;63.61
28628;BME280;15815;46.760;19.604;2023-04-05T03:55:19;100533.38;;;0.12;64.07
28628;BME280;15815;46.760;19.604;2023-04-05T03:57:45;100534.22;;;0.04;64.08
28628;BME280;15815;46.760;19.604;2023-04-05T04:00:11;100544.91;;;0.14;63.90
28628;BME280;15815;46.760;19.604;2023-04-05T04:02:47;100523.66;;;0.06;63.70
28628;BME280;15815;46.760;19.604;2023-04-05T04:05:18;100536.94;;;0.21;63.87
28628;BME280;15815;46.760;19.604;2023-04-05T04:07:43;100517.47;;;0.09;63.86
28628;BME280;15815;46.760;19.604;2023-04-05T04:10:14;100520.41;;;0.04;64.21
28628;BME280;15815;46.760;19.604;2023-04-05T04:12:40;100519.75;;;0.07;63.93
28628;BME280;15815;46.760;19.604;2023-04-05T04:15:06;100508.22;;;0.05;63.98
28628;BME280;15815;46.760;19.604;2023-04-05T04:17:33;100512.91;;;0.13;64.12
28628;BME280;15815;46.760;19.604;2023-04-05T04:20:07;100518.56;;;0.17;63.84
28628;BME280;15815;46.760;19.604;2023-04-05T04:22:36;100519.09;;;0.10;64.24
28628;BME280;15815;46.760;19.604;2023-04-05T04:25:02;100519.22;;;0.14;64.28
28628;BME280;15815;46.760;19.604;2023-04-05T04:27:28;100532.53;;;0.20;64.86
28628;BME280;15815;46.760;19.604;2023-04-05T04:29:55;100533.34;;;0.21;64.28
28628;BME280;15815;46.760;19.604;2023-04-05T04:32:21;100507.72;;;0.03;64.57
28628;BME280;15815;46.760;19.604;2023-04-05T04:34:46;100549.94;;;0.29;64.27
28628;BME280;15815;46.760;19.604;2023-04-05T04:37:15;100534.50;;;0.28;64.67
28628;BME280;15815;46.760;19.604;2023-04-05T04:39:41;100549.56;;;0.40;64.89
28628;BME280;15815;46.760;19.604;2023-04-05T04:42:06;100549.72;;;0.43;64.58
28628;BME280;15815;46.760;19.604;2023-04-05T04:44:32;100533.94;;;0.44;64.14
28628;BME280;15815;46.760;19.604;2023-04-05T04:46:57;100551.47;;;0.48;65.16
28628;BME280;15815;46.760;19.604;2023-04-05T04:49:23;100539.31;;;0.40;64.70
28628;BME280;15815;46.760;19.604;2023-04-05T04:51:48;100556.66;;;0.58;64.48
28628;BME280;15815;46.760;19.604;2023-04-05T04:54:17;100546.25;;;0.55;65.04
28628;BME280;15815;46.760;19.604;2023-04-05T04:56:42;100545.59;;;0.58;64.67
28628;BME280;15815;46.760;19.604;2023-04-05T04:59:11;100563.09;;;0.71;63.93
28628;BME280;15815;46.760;19.604;2023-04-05T05:01:36;100558.56;;;0.66;64.51
28628;BME280;15815;46.760;19.604;2023-04-05T05:04:03;100537.72;;;0.69;64.48
28628;BME280;15815;46.760;19.604;2023-04-05T05:06:29;100555.72;;;0.83;64.05
28628;BME280;15815;46.760;19.604;2023-04-05T05:08:58;100571.94;;;0.93;63.50
28628;BME280;15815;46.760;19.604;2023-04-05T05:11:23;100544.47;;;0.88;63.82
28628;BME280;15815;46.760;19.604;2023-04-05T05:13:51;100556.81;;;0.91;63.76
28628;BME280;15815;46.760;19.604;2023-04-05T05:16:17;100547.03;;;0.93;63.99
28628;BME280;15815;46.760;19.604;2023-04-05T05:18:42;100550.19;;;1.13;63.69
28628;BME280;15815;46.760;19.604;2023-04-05T05:21:08;100567.81;;;1.29;63.33
28628;BME280;15815;46.760;19.604;2023-04-05T05:23:33;100550.63;;;1.44;64.02
28628;BME280;15815;46.760;19.604;2023-04-05T05:25:59;100571.97;;;1.65;63.86
28628;BME280;15815;46.760;19.604;2023-04-05T05:28:27;100573.25;;;1.67;63.81
28628;BME280;15815;46.760;19.604;2023-04-05T05:30:53;100548.50;;;1.62;62.54
28628;BME280;15815;46.760;19.604;2023-04-05T05:33:18;100577.56;;;1.98;63.24
28628;BME280;15815;46.760;19.604;2023-04-05T05:35:48;100573.50;;;2.28;63.83
28628;BME280;15815;46.760;19.604;2023-04-05T05:38:17;100584.91;;;2.72;60.81
28628;BME280;15815;46.760;19.604;2023-04-05T05:40:42;100564.41;;;3.37;61.00
28628;BME280;15815;46.760;19.604;2023-04-05T05:43:08;100585.78;;;4.01;62.38
28628;BME280;15815;46.760;19.604;2023-04-05T05:45:34;100579.13;;;4.34;62.90
28628;BME280;15815;46.760;19.604;2023-04-05T05:47:59;100555.81;;;4.11;61.93
28628;BME280;15815;46.760;19.604;2023-04-05T05:50:25;100566.72;;;4.16;62.56
28628;BME280;15815;46.760;19.604;2023-04-05T05:52:50;100574.28;;;4.31;60.12
28628;BME280;15815;46.760;19.604;2023-04-05T05:55:17;100559.91;;;4.29;63.52
28628;BME280;15815;46.760;19.604;2023-04-05T05:57:42;100561.03;;;4.40;61.13
28628;BME280;15815;46.760;19.604;2023-04-05T06:00:08;100557.81;;;4.70;61.93
28628;BME280;15815;46.760;19.604;2023-04-05T06:02:34;100565.16;;;5.09;57.48
28628;BME280;15815;46.760;19.604;2023-04-05T06:05:00;100579.22;;;5.67;62.02
28628;BME280;15815;46.760;19.604;2023-04-05T06:07:25;100564.28;;;6.14;59.73
28628;BME280;15815;46.760;19.604;2023-04-05T06:09:51;100562.38;;;6.60;61.81
28628;BME280;15815;46.760;19.604;2023-04-05T06:12:16;100558.59;;;7.21;62.46
28628;BME280;15815;46.760;19.604;2023-04-05T06:14:43;100561.00;;;7.49;54.03
28628;BME280;15815;46.760;19.604;2023-04-05T06:17:08;100557.38;;;7.45;57.13
28628;BME280;15815;46.760;19.604;2023-04-05T06:19:34;100549.06;;;7.52;59.74
28628;BME280;15815;46.760;19.604;2023-04-05T06:21:59;100552.63;;;7.49;55.18
28628;BME280;15815;46.760;19.604;2023-04-05T06:24:25;100553.69;;;7.67;54.29
28628;BME280;15815;46.760;19.604;2023-04-05T06:26:52;100567.44;;;7.80;51.80
28628;BME280;15815;46.760;19.604;2023-04-05T06:29:17;100565.56;;;8.58;55.04
28628;BME280;15815;46.760;19.604;2023-04-05T06:31:46;100568.84;;;9.08;45.22
28628;BME280;15815;46.760;19.604;2023-04-05T06:34:12;100564.72;;;9.49;54.53
28628;BME280;15815;46.760;19.604;2023-04-05T06:36:37;100571.28;;;9.78;57.55
28628;BME280;15815;46.760;19.604;2023-04-05T06:39:03;100555.25;;;9.79;51.26
28628;BME280;15815;46.760;19.604;2023-04-05T06:41:29;100564.22;;;10.13;53.40
28628;BME280;15815;46.760;19.604;2023-04-05T06:43:55;100585.28;;;10.58;50.88
28628;BME280;15815;46.760;19.604;2023-04-05T06:46:20;100571.66;;;10.85;48.00
28628;BME280;15815;46.760;19.604;2023-04-05T06:48:46;100571.63;;;11.60;53.58
28628;BME280;15815;46.760;19.604;2023-04-05T06:51:12;100568.41;;;11.79;50.69
28628;BME280;15815;46.760;19.604;2023-04-05T06:53:38;100560.25;;;12.02;51.37
28628;BME280;15815;46.760;19.604;2023-04-05T06:56:04;100556.13;;;12.25;51.51
28628;BME280;15815;46.760;19.604;2023-04-05T06:58:29;100580.66;;;12.35;49.71
28628;BME280;15815;46.760;19.604;2023-04-05T07:00:55;100564.25;;;12.12;46.06
28628;BME280;15815;46.760;19.604;2023-04-05T07:03:21;100572.34;;;12.76;49.20
28628;BME280;15815;46.760;19.604;2023-04-05T07:05:53;100552.63;;;12.06;39.93
28628;BME280;15815;46.760;19.604;2023-04-05T07:08:20;100577.25;;;11.81;42.68
28628;BME280;15815;46.760;19.604;2023-04-05T07:10:49;100594.13;;;11.67;40.15
28628;BME280;15815;46.760;19.604;2023-04-05T07:13:16;100588.78;;;12.15;42.53
28628;BME280;15815;46.760;19.604;2023-04-05T07:15:42;100574.75;;;12.08;43.90
28628;BME280;15815;46.760;19.604;2023-04-05T07:18:09;100564.94;;;12.37;41.79
28628;BME280;15815;46.760;19.604;2023-04-05T07:20:35;100588.88;;;12.74;48.29
28628;BME280;15815;46.760;19.604;2023-04-05T07:23:01;100577.28;;;13.20;46.38
28628;BME280;15815;46.760;19.604;2023-04-05T07:25:26;100566.63;;;13.39;41.76
28628;BME280;15815;46.760;19.604;2023-04-05T07:27:52;100567.72;;;13.52;41.65
28628;BME280;15815;46.760;19.604;2023-04-05T07:30:18;100580.19;;;13.54;39.79
28628;BME280;15815;46.760;19.604;2023-04-05T07:32:43;100586.41;;;13.80;43.96
28628;BME280;15815;46.760;19.604;2023-04-05T07:35:09;100561.81;;;14.41;45.50
28628;BME280;15815;46.760;19.604;2023-04-05T07:37:35;100587.13;;;14.56;45.77
28628;BME280;15815;46.760;19.604;2023-04-05T07:40:00;100576.44;;;14.67;40.33
28628;BME280;15815;46.760;19.604;2023-04-05T07:42:26;100586.19;;;14.32;41.91
28628;BME280;15815;46.760;19.604;2023-04-05T07:44:52;100564.13;;;14.50;43.89
28628;BME280;15815;46.760;19.604;2023-04-05T07:47:18;100581.09;;;14.80;40.52
28628;BME280;15815;46.760;19.604;2023-04-05T07:49:44;100578.03;;;15.68;42.22
28628;BME280;15815;46.760;19.604;2023-04-05T07:52:09;100555.47;;;15.14;40.13
28628;BME280;15815;46.760;19.604;2023-04-05T07:54:36;100554.53;;;15.44;37.36
28628;BME280;15815;46.760;19.604;2023-04-05T07:57:01;100573.19;;;15.89;37.72
28628;BME280;15815;46.760;19.604;2023-04-05T07:59:27;100587.50;;;16.21;39.32
28628;BME280;15815;46.760;19.604;2023-04-05T08:01:56;100554.28;;;16.02;36.10
28628;BME280;15815;46.760;19.604;2023-04-05T08:04:24;100577.63;;;15.90;33.18
28628;BME280;15815;46.760;19.604;2023-04-05T08:06:49;100572.41;;;15.41;31.09
28628;BME280;15815;46.760;19.604;2023-04-05T08:09:16;100558.25;;;15.18;31.22
28628;BME280;15815;46.760;19.604;2023-04-05T08:11:41;100578.56;;;15.36;32.85
28628;BME280;15815;46.760;19.604;2023-04-05T08:14:07;100561.13;;;14.91;31.11
28628;BME280;15815;46.760;19.604;2023-04-05T08:16:33;100568.63;;;15.01;30.54
28628;BME280;15815;46.760;19.604;2023-04-05T08:18:59;100588.38;;;15.05;30.91
28628;BME280;15815;46.760;19.604;2023-04-05T08:21:25;100572.34;;;15.22;35.69
28628;BME280;15815;46.760;19.604;2023-04-05T08:23:51;100596.22;;;15.44;35.21
28628;BME280;15815;46.760;19.604;2023-04-05T08:26:17;100587.13;;;16.39;32.88
28628;BME280;15815;46.760;19.604;2023-04-05T08:28:43;100593.25;;;16.18;30.88
28628;BME280;15815;46.760;19.604;2023-04-05T08:31:09;100588.44;;;17.55;35.60
28628;BME280;15815;46.760;19.604;2023-04-05T08:33:35;100603.97;;;18.54;37.31
28628;BME280;15815;46.760;19.604;2023-04-05T08:36:05;100595.06;;;18.39;33.18
28628;BME280;15815;46.760;19.604;2023-04-05T08:38:32;100590.13;;;18.14;29.98
28628;BME280;15815;46.760;19.604;2023-04-05T08:43:56;100590.25;;;18.78;28.60
28628;BME280;15815;46.760;19.604;2023-04-05T08:46:23;100577.50;;;18.70;27.35
28628;BME280;15815;46.760;19.604;2023-04-05T08:48:49;100573.97;;;18.66;27.46
28628;BME280;15815;46.760;19.604;2023-04-05T08:51:19;100587.75;;;18.26;27.05
28628;BME280;15815;46.760;19.604;2023-04-05T08:53:48;100574.56;;;17.74;28.77
28628;BME280;15815;46.760;19.604;2023-04-05T08:56:15;100584.38;;;17.24;32.16
28628;BME280;15815;46.760;19.604;2023-04-05T08:59:03;100598.38;;;18.38;31.46
28628;BME280;15815;46.760;19.604;2023-04-05T09:01:29;100584.72;;;17.58;35.23
28628;BME280;15815;46.760;19.604;2023-04-05T09:04:06;100596.94;;;16.34;28.71
28628;BME280;15815;46.760;19.604;2023-04-05T09:06:37;100577.34;;;15.61;30.57
28628;BME280;15815;46.760;19.604;2023-04-05T09:09:07;100565.94;;;15.18;31.07
28628;BME280;15815;46.760;19.604;2023-04-05T09:11:36;100568.78;;;15.41;30.42
28628;BME280;15815;46.760;19.604;2023-04-05T09:14:03;100592.25;;;14.91;31.46
28628;BME280;15815;46.760;19.604;2023-04-05T09:16:31;100583.75;;;14.64;29.22
28628;BME280;15815;46.760;19.604;2023-04-05T09:18:57;100586.34;;;14.51;31.35
28628;BME280;15815;46.760;19.604;2023-04-05T09:21:27;100584.56;;;15.65;31.79
28628;BME280;15815;46.760;19.604;2023-04-05T09:23:53;100562.03;;;16.37;32.22
28628;BME280;15815;46.760;19.604;2023-04-05T09:26:19;100588.81;;;16.17;28.16
28628;BME280;15815;46.760;19.604;2023-04-05T09:28:45;100574.19;;;15.08;30.47
28628;BME280;15815;46.760;19.604;2023-04-05T09:31:31;100589.28;;;14.98;29.69
28628;BME280;15815;46.760;19.604;2023-04-05T09:33:58;100567.25;;;13.95;32.34
28628;BME280;15815;46.760;19.604;2023-04-05T09:36:23;100572.75;;;14.70;32.80
28628;BME280;15815;46.760;19.604;2023-04-05T09:38:49;100583.75;;;14.91;31.29
28628;BME280;15815;46.760;19.604;2023-04-05T09:41:15;100555.06;;;15.83;28.13
28628;BME280;15815;46.760;19.604;2023-04-05T09:43:41;100572.81;;;14.93;30.81
28628;BME280;15815;46.760;19.604;2023-04-05T09:46:30;100572.72;;;15.24;29.42
28628;BME280;15815;46.760;19.604;2023-04-05T09:48:56;100556.22;;;15.42;35.06
28628;BME280;15815;46.760;19.604;2023-04-05T09:51:22;100568.31;;;17.17;30.00
28628;BME280;15815;46.760;19.604;2023-04-05T09:54:04;100549.31;;;16.98;28.21
28628;BME280;15815;46.760;19.604;2023-04-05T09:56:38;100565.91;;;16.07;31.99
28628;BME280;15815;46.760;19.604;2023-04-05T09:59:09;100578.25;;;15.54;30.43
28628;BME280;15815;46.760;19.604;2023-04-05T10:01:42;100568.09;;;15.10;29.97
28628;BME280;15815;46.760;19.604;2023-04-05T10:04:08;100566.22;;;14.46;31.03
28628;BME280;15815;46.760;19.604;2023-04-05T10:06:41;100571.78;;;15.54;31.37
28628;BME280;15815;46.760;19.604;2023-04-05T10:09:09;100580.09;;;15.41;30.95
28628;BME280;15815;46.760;19.604;2023-04-05T10:11:35;100556.94;;;14.99;32.17
28628;BME280;15815;46.760;19.604;2023-04-05T10:14:07;100560.59;;;14.42;30.05
28628;BME280;15815;46.760;19.604;2023-04-05T10:16:50;100571.38;;;14.55;29.41
28628;BME280;15815;46.760;19.604;2023-04-05T10:19:28;100533.88;;;16.99;29.17
28628;BME280;15815;46.760;19.604;2023-04-05T10:21:56;100563.44;;;17.34;29.78
28628;BME280;15815;46.760;19.604;2023-04-05T10:24:53;100558.63;;;16.46;28.80
28628;BME280;15815;46.760;19.604;2023-04-05T10:27:38;100562.47;;;15.76;30.88
28628;BME280;15815;46.760;19.604;2023-04-05T10:30:06;100571.94;;;16.29;29.56
28628;BME280;15815;46.760;19.604;2023-04-05T10:32:34;100564.91;;;16.54;30.11
28628;BME280;15815;46.760;19.604;2023-04-05T10:35:23;100539.22;;;15.42;28.73
28628;BME280;15815;46.760;19.604;2023-04-05T10:38:09;100565.97;;;14.64;29.74
28628;BME280;15815;46.760;19.604;2023-04-05T10:40:36;100554.97;;;14.96;34.60
28628;BME280;15815;46.760;19.604;2023-04-05T10:43:02;100533.78;;;17.35;31.78
28628;BME280;15815;46.760;19.604;2023-04-05T10:45:30;100539.75;;;16.56;33.07
28628;BME280;15815;46.760;19.604;2023-04-05T10:48:04;100536.75;;;14.97;30.66
28628;BME280;15815;46.760;19.604;2023-04-05T10:50:34;100528.47;;;14.29;31.19
28628;BME280;15815;46.760;19.604;2023-04-05T10:53:02;100543.88;;;15.05;32.53
28628;BME280;15815;46.760;19.604;2023-04-05T10:55:28;100554.13;;;16.65;30.73
28628;BME280;15815;46.760;19.604;2023-04-05T10:57:56;100534.69;;;16.99;29.52
28628;BME280;15815;46.760;19.604;2023-04-05T11:00:25;100534.13;;;16.88;28.42
28628;BME280;15815;46.760;19.604;2023-04-05T11:02:54;100540.09;;;16.78;31.49
28628;BME280;15815;46.760;19.604;2023-04-05T11:05:29;100539.19;;;16.45;27.76
28628;BME280;15815;46.760;19.604;2023-04-05T11:07:59;100542.31;;;16.50;28.93
28628;BME280;15815;46.760;19.604;2023-04-05T11:10:27;100531.22;;;16.76;27.84
28628;BME280;15815;46.760;19.604;2023-04-05T11:18:10;100542.81;;;16.97;27.23
28628;BME280;15815;46.760;19.604;2023-04-05T11:20:40;100539.34;;;15.11;28.56
28628;BME280;15815;46.760;19.604;2023-04-05T11:23:05;100523.81;;;15.43;29.32
28628;BME280;15815;46.760;19.604;2023-04-05T11:25:36;100506.88;;;16.02;31.30
28628;BME280;15815;46.760;19.604;2023-04-05T11:28:03;100508.47;;;16.03;27.96
28628;BME280;15815;46.760;19.604;2023-04-05T11:30:47;100533.59;;;16.77;28.88
28628;BME280;15815;46.760;19.604;2023-04-05T11:33:35;100531.41;;;16.65;27.96
28628;BME280;15815;46.760;19.604;2023-04-05T11:36:02;100530.25;;;16.46;28.70
28628;BME280;15815;46.760;19.604;2023-04-05T11:38:28;100528.22;;;14.74;30.26
28628;BME280;15815;46.760;19.604;2023-04-05T11:43:37;100511.22;;;15.24;27.79
28628;BME280;15815;46.760;19.604;2023-04-05T11:46:06;100532.50;;;14.59;30.23
28628;BME280;15815;46.760;19.604;2023-04-05T11:48:31;100505.16;;;14.75;30.22
28628;BME280;15815;46.760;19.604;2023-04-05T11:50:57;100517.50;;;15.12;30.80
28628;BME280;15815;46.760;19.604;2023-04-05T11:53:23;100492.78;;;15.59;32.15
28628;BME280;15815;46.760;19.604;2023-04-05T11:55:50;100521.28;;;15.92;31.74
28628;BME280;15815;46.760;19.604;2023-04-05T12:00:43;100508.56;;;15.37;31.97
28628;BME280;15815;46.760;19.604;2023-04-05T12:03:14;100506.53;;;15.37;31.85
28628;BME280;15815;46.760;19.604;2023-04-05T12:05:52;100515.78;;;15.18;32.73
28628;BME280;15815;46.760;19.604;2023-04-05T12:08:19;100494.16;;;15.04;31.89
28628;BME280;15815;46.760;19.604;2023-04-05T12:10:57;100523.03;;;14.96;29.16
28628;BME280;15815;46.760;19.604;2023-04-05T12:13:31;100513.75;;;14.68;28.89
28628;BME280;15815;46.760;19.604;2023-04-05T12:16:05;100519.97;;;14.29;29.45
28628;BME280;15815;46.760;19.604;2023-04-05T12:18:33;100514.69;;;14.31;29.89
28628;BME280;15815;46.760;19.604;2023-04-05T12:21:01;100504.31;;;14.51;30.60
28628;BME280;15815;46.760;19.604;2023-04-05T12:23:30;100505.09;;;14.79;33.14
28628;BME280;15815;46.760;19.604;2023-04-05T12:25:56;100473.53;;;14.57;33.63
28628;BME280;15815;46.760;19.604;2023-04-05T12:28:22;100473.00;;;14.66;34.00
28628;BME280;15815;46.760;19.604;2023-04-05T12:30:52;100476.19;;;14.41;32.08
28628;BME280;15815;46.760;19.604;2023-04-05T12:33:28;100502.06;;;14.39;31.97
28628;BME280;15815;46.760;19.604;2023-04-05T12:35:57;100499.50;;;14.48;34.74
28628;BME280;15815;46.760;19.604;2023-04-05T12:38:26;100490.09;;;14.28;30.38
28628;BME280;15815;46.760;19.604;2023-04-05T12:40:54;100483.13;;;13.75;30.39
28628;BME280;15815;46.760;19.604;2023-04-05T12:43:39;100483.00;;;13.52;28.70
28628;BME280;15815;46.760;19.604;2023-04-05T12:46:08;100487.06;;;13.51;31.05
28628;BME280;15815;46.760;19.604;2023-04-05T12:48:36;100473.97;;;13.64;30.69
28628;BME280;15815;46.760;19.604;2023-04-05T12:51:02;100469.50;;;14.01;32.86
28628;BME280;15815;46.760;19.604;2023-04-05T12:53:28;100462.38;;;13.89;33.48
28628;BME280;15815;46.760;19.604;2023-04-05T12:55:54;100466.50;;;13.81;30.77
28628;BME280;15815;46.760;19.604;2023-04-05T12:58:31;100460.59;;;13.72;29.43
28628;BME280;15815;46.760;19.604;2023-04-05T13:00:57;100449.59;;;13.47;31.33
28628;BME280;15815;46.760;19.604;2023-04-05T13:03:25;100464.50;;;13.06;29.49
28628;BME280;15815;46.760;19.604;2023-04-05T13:05:51;100449.41;;;12.82;28.95
28628;BME280;15815;46.760;19.604;2023-04-05T13:08:17;100438.50;;;12.36;29.15
28628;BME280;15815;46.760;19.604;2023-04-05T13:10:47;100444.19;;;12.29;30.18
28628;BME280;15815;46.760;19.604;2023-04-05T13:13:13;100465.03;;;12.42;30.79
28628;BME280;15815;46.760;19.604;2023-04-05T13:15:39;100451.53;;;12.16;29.53
28628;BME280;15815;46.760;19.604;2023-04-05T13:18:04;100459.03;;;12.40;31.38